sensor_id;sensor_type;location;lat;lon;timestamp;temperature;humidity
21778;DHT22;11050;52.222;20.916;2023-06-14T00:01:50;12.80;99.90
21778;DHT22;11050;52.222;20.916;2023-06-14T00:04:16;12.80;99.90
21778;DHT22;11050;52.222;20.916;2023-06-14T00:06:42;12.80;99.90
21778;DHT22;11050;52.222;20.916;2023-06-14T00:09:13;12.80;99.90
21778;DHT22;11050;52.222;20.916;2023-06-14T00:11:41;12.70;99.90
21778;DHT22;11050;52.222;20.916;2023-06-14T00:14:07;12.80;99.90
21778;DHT22;11050;52.222;20.916;2023-06-14T00:16:33;12.80;99.90
21778;DHT22;11050;52.222;20.916;2023-06-14T00:19:01;12.70;99.90
21778;DHT22;11050;52.222;20.916;2023-06-14T00:21:29;12.70;99.90
21778;DHT22;11050;52.222;20.916;2023-06-14T00:23:57;12.70;99.90
21778;DHT22;11050;52.222;20.916;2023-06-14T00:26:23;12.80;99.90
21778;DHT22;11050;52.222;20.916;2023-06-14T00:28:49;12.80;99.90
21778;DHT22;11050;52.222;20.916;2023-06-14T00:31:14;12.70;99.90
21778;DHT22;11050;52.222;20.916;2023-06-14T00:33:40;12.70;99.90
21778;DHT22;11050;52.222;20.916;2023-06-14T00:36:06;12.70;99.90
21778;DHT22;11050;52.222;20.916;2023-06-14T00:38:31;12.70;99.90
21778;DHT22;11050;52.222;20.916;2023-06-14T00:40:57;12.70;99.90
21778;DHT22;11050;52.222;20.916;2023-06-14T00:43:23;12.70;99.90
21778;DHT22;11050;52.222;20.916;2023-06-14T00:45:48;12.70;99.90
21778;DHT22;11050;52.222;20.916;2023-06-14T00:48:16;12.70;99.90
21778;DHT22;11050;52.222;20.916;2023-06-14T00:50:43;12.70;99.90
21778;DHT22;11050;52.222;20.916;2023-06-14T00:53:14;12.60;99.90
21778;DHT22;11050;52.222;20.916;2023-06-14T00:55:43;12.70;99.90
21778;DHT22;11050;52.222;20.916;2023-06-14T00:58:10;12.70;99.90
21778;DHT22;11050;52.222;20.916;2023-06-14T01:00:36;12.70;99.90
21778;DHT22;11050;52.222;20.916;2023-06-14T01:03:02;12.60;99.90
21778;DHT22;11050;52.222;20.916;2023-06-14T01:05:29;12.60;99.90
21778;DHT22;11050;52.222;20.916;2023-06-14T01:11:12;12.60;99.90
21778;DHT22;11050;52.222;20.916;2023-06-14T01:14:07;12.60;99.90
21778;DHT22;11050;52.222;20.916;2023-06-14T01:16:36;12.70;99.90
21778;DHT22;11050;52.222;20.916;2023-06-14T01:19:05;12.70;99.90
21778;DHT22;11050;52.222;20.916;2023-06-14T01:21:31;12.70;99.90
21778;DHT22;11050;52.222;20.916;2023-06-14T01:24:08;12.60;99.90
21778;DHT22;11050;52.222;20.916;2023-06-14T01:26:35;12.60;99.90
21778;DHT22;11050;52.222;20.916;2023-06-14T01:29:03;12.60;99.90
21778;DHT22;11050;52.222;20.916;2023-06-14T01:31:30;12.60;99.90
21778;DHT22;11050;52.222;20.916;2023-06-14T01:34:06;12.70;99.90
21778;DHT22;11050;52.222;20.916;2023-06-14T01:36:34;12.70;99.90
21778;DHT22;11050;52.222;20.916;2023-06-14T01:39:05;12.70;99.90
21778;DHT22;11050;52.222;20.916;2023-06-14T01:41:31;12.70;99.90
21778;DHT22;11050;52.222;20.916;2023-06-14T01:43:58;12.70;99.90
21778;DHT22;11050;52.222;20.916;2023-06-14T01:46:26;12.70;99.90
21778;DHT22;11050;52.222;20.916;2023-06-14T01:48:51;12.70;99.90
21778;DHT22;11050;52.222;20.916;2023-06-14T01:51:17;12.70;99.90
21778;DHT22;11050;52.222;20.916;2023-06-14T01:53:43;12.70;99.90
21778;DHT22;11050;52.222;20.916;2023-06-14T01:56:08;12.70;99.90
21778;DHT22;11050;52.222;20.916;2023-06-14T01:58:34;12.70;99.90
21778;DHT22;11050;52.222;20.916;2023-06-14T02:01:00;12.70;99.90
21778;DHT22;11050;52.222;20.916;2023-06-14T02:03:27;12.70;99.90
21778;DHT22;11050;52.222;20.916;2023-06-14T02:05:53;12.70;99.90
21778;DHT22;11050;52.222;20.916;2023-06-14T02:08:19;12.70;99.90
21778;DHT22;11050;52.222;20.916;2023-06-14T02:10:45;12.70;99.90
21778;DHT22;11050;52.222;20.916;2023-06-14T02:13:11;12.70;99.90
21778;DHT22;11050;52.222;20.916;2023-06-14T02:15:37;12.80;99.90
21778;DHT22;11050;52.222;20.916;2023-06-14T02:18:03;12.80;99.90
21778;DHT22;11050;52.222;20.916;2023-06-14T02:20:29;12.80;99.90
21778;DHT22;11050;52.222;20.916;2023-06-14T02:22:55;12.80;99.90
21778;DHT22;11050;52.222;20.916;2023-06-14T02:25:21;12.80;99.90
21778;DHT22;11050;52.222;20.916;2023-06-14T02:27:47;12.80;99.90
21778;DHT22;11050;52.222;20.916;2023-06-14T02:30:13;12.80;99.90
21778;DHT22;11050;52.222;20.916;2023-06-14T02:32:39;12.80;99.90
21778;DHT22;11050;52.222;20.916;2023-06-14T02:35:06;12.80;99.90
21778;DHT22;11050;52.222;20.916;2023-06-14T02:37:33;12.80;99.90
21778;DHT22;11050;52.222;20.916;2023-06-14T02:39:59;12.80;99.90
21778;DHT22;11050;52.222;20.916;2023-06-14T02:42:25;12.90;99.90
21778;DHT22;11050;52.222;20.916;2023-06-14T02:44:50;12.80;99.90
21778;DHT22;11050;52.222;20.916;2023-06-14T02:47:18;12.90;99.90
21778;DHT22;11050;52.222;20.916;2023-06-14T02:49:44;12.90;99.90
21778;DHT22;11050;52.222;20.916;2023-06-14T02:52:12;12.80;99.90
21778;DHT22;11050;52.222;20.916;2023-06-14T02:54:37;12.90;99.90
21778;DHT22;11050;52.222;20.916;2023-06-14T02:57:03;12.80;99.90
21778;DHT22;11050;52.222;20.916;2023-06-14T02:59:29;12.90;99.90
21778;DHT22;11050;52.222;20.916;2023-06-14T03:01:55;12.90;99.90
21778;DHT22;11050;52.222;20.916;2023-06-14T03:04:20;12.90;99.90
21778;DHT22;11050;52.222;20.916;2023-06-14T03:06:46;12.90;99.90
21778;DHT22;11050;52.222;20.916;2023-06-14T03:09:15;12.90;99.90
21778;DHT22;11050;52.222;20.916;2023-06-14T03:11:42;13.00;99.90
21778;DHT22;11050;52.222;20.916;2023-06-14T03:14:07;13.00;99.90
21778;DHT22;11050;52.222;20.916;2023-06-14T03:16:33;13.00;99.90
21778;DHT22;11050;52.222;20.916;2023-06-14T03:18:59;13.00;99.90
21778;DHT22;11050;52.222;20.916;2023-06-14T03:21:25;13.00;99.90
21778;DHT22;11050;52.222;20.916;2023-06-14T03:23:51;13.00;99.90
21778;DHT22;11050;52.222;20.916;2023-06-14T03:26:18;13.00;99.90
21778;DHT22;11050;52.222;20.916;2023-06-14T03:28:44;13.10;99.90
21778;DHT22;11050;52.222;20.916;2023-06-14T03:31:11;13.10;99.90
21778;DHT22;11050;52.222;20.916;2023-06-14T03:33:38;13.10;99.90
21778;DHT22;11050;52.222;20.916;2023-06-14T03:36:05;13.10;99.90
21778;DHT22;11050;52.222;20.916;2023-06-14T03:38:34;13.20;99.90
21778;DHT22;11050;52.222;20.916;2023-06-14T03:41:00;13.20;99.90
21778;DHT22;11050;52.222;20.916;2023-06-14T03:43:27;13.20;99.90
21778;DHT22;11050;52.222;20.916;2023-06-14T03:45:53;13.20;99.90
21778;DHT22;11050;52.222;20.916;2023-06-14T03:48:18;13.30;99.90
21778;DHT22;11050;52.222;20.916;2023-06-14T03:50:44;13.30;99.90
21778;DHT22;11050;52.222;20.916;2023-06-14T03:53:10;13.30;99.90
21778;DHT22;11050;52.222;20.916;2023-06-14T03:55:36;13.40;99.90
21778;DHT22;11050;52.222;20.916;2023-06-14T03:58:03;13.40;99.90
21778;DHT22;11050;52.222;20.916;2023-06-14T04:00:29;13.40;99.90
21778;DHT22;11050;52.222;20.916;2023-06-14T04:02:55;13.50;99.90
21778;DHT22;11050;52.222;20.916;2023-06-14T04:05:21;13.50;99.90
21778;DHT22;11050;52.222;20.916;2023-06-14T04:07:47;13.50;99.90
21778;DHT22;11050;52.222;20.916;2023-06-14T04:10:15;13.60;99.90
21778;DHT22;11050;52.222;20.916;2023-06-14T04:12:42;13.60;99.90
21778;DHT22;11050;52.222;20.916;2023-06-14T04:15:08;13.70;99.90
21778;DHT22;11050;52.222;20.916;2023-06-14T04:17:35;13.70;99.90
21778;DHT22;11050;52.222;20.916;2023-06-14T04:20:02;13.80;99.90
21778;DHT22;11050;52.222;20.916;2023-06-14T04:22:31;13.80;99.90
21778;DHT22;11050;52.222;20.916;2023-06-14T04:24:57;13.90;99.90
21778;DHT22;11050;52.222;20.916;2023-06-14T04:27:23;14.00;99.90
21778;DHT22;11050;52.222;20.916;2023-06-14T04:29:52;14.00;99.90
21778;DHT22;11050;52.222;20.916;2023-06-14T04:32:23;14.10;99.90
21778;DHT22;11050;52.222;20.916;2023-06-14T04:34:55;14.20;99.90
21778;DHT22;11050;52.222;20.916;2023-06-14T04:37:25;14.20;99.90
21778;DHT22;11050;52.222;20.916;2023-06-14T04:39:54;14.20;99.90
21778;DHT22;11050;52.222;20.916;2023-06-14T04:42:24;14.30;99.90
21778;DHT22;11050;52.222;20.916;2023-06-14T04:44:57;14.30;99.90
21778;DHT22;11050;52.222;20.916;2023-06-14T04:47:23;14.40;99.90
21778;DHT22;11050;52.222;20.916;2023-06-14T04:49:54;14.50;99.90
21778;DHT22;11050;52.222;20.916;2023-06-14T04:52:22;14.50;99.90
21778;DHT22;11050;52.222;20.916;2023-06-14T04:54:48;14.60;99.90
21778;DHT22;11050;52.222;20.916;2023-06-14T04:57:14;14.70;99.90
21778;DHT22;11050;52.222;20.916;2023-06-14T04:59:43;14.70;99.90
21778;DHT22;11050;52.222;20.916;2023-06-14T05:02:10;14.80;99.90
21778;DHT22;11050;52.222;20.916;2023-06-14T05:04:37;14.80;99.90
21778;DHT22;11050;52.222;20.916;2023-06-14T05:07:09;14.90;99.90
21778;DHT22;11050;52.222;20.916;2023-06-14T05:09:37;14.90;99.90
21778;DHT22;11050;52.222;20.916;2023-06-14T05:12:03;14.90;99.90
21778;DHT22;11050;52.222;20.916;2023-06-14T05:14:30;15.00;99.90
21778;DHT22;11050;52.222;20.916;2023-06-14T05:16:55;15.00;99.90
21778;DHT22;11050;52.222;20.916;2023-06-14T05:19:21;15.10;99.90
21778;DHT22;11050;52.222;20.916;2023-06-14T05:21:47;15.20;99.90
21778;DHT22;11050;52.222;20.916;2023-06-14T05:24:14;15.20;99.90
21778;DHT22;11050;52.222;20.916;2023-06-14T05:26:40;15.20;99.90
21778;DHT22;11050;52.222;20.916;2023-06-14T05:29:06;15.30;99.90
21778;DHT22;11050;52.222;20.916;2023-06-14T05:31:31;15.30;99.90
21778;DHT22;11050;52.222;20.916;2023-06-14T05:33:58;15.30;99.90
21778;DHT22;11050;52.222;20.916;2023-06-14T05:36:23;15.30;99.90
21778;DHT22;11050;52.222;20.916;2023-06-14T05:38:50;15.30;99.90
21778;DHT22;11050;52.222;20.916;2023-06-14T05:41:16;15.30;99.90
21778;DHT22;11050;52.222;20.916;2023-06-14T05:43:42;15.40;99.90
21778;DHT22;11050;52.222;20.916;2023-06-14T05:46:07;15.30;99.90
21778;DHT22;11050;52.222;20.916;2023-06-14T05:48:33;15.30;99.90
21778;DHT22;11050;52.222;20.916;2023-06-14T05:50:59;15.30;99.90
21778;DHT22;11050;52.222;20.916;2023-06-14T05:53:25;15.30;99.90
21778;DHT22;11050;52.222;20.916;2023-06-14T05:55:51;15.40;99.90
21778;DHT22;11050;52.222;20.916;2023-06-14T05:58:20;15.40;99.90
21778;DHT22;11050;52.222;20.916;2023-06-14T06:00:47;15.50;99.90
21778;DHT22;11050;52.222;20.916;2023-06-14T06:03:12;15.60;99.90
21778;DHT22;11050;52.222;20.916;2023-06-14T06:05:39;15.60;99.90
21778;DHT22;11050;52.222;20.916;2023-06-14T06:08:05;15.70;99.90
21778;DHT22;11050;52.222;20.916;2023-06-14T06:10:31;15.80;99.90
21778;DHT22;11050;52.222;20.916;2023-06-14T06:12:56;15.80;99.90
21778;DHT22;11050;52.222;20.916;2023-06-14T06:15:22;15.90;99.90
21778;DHT22;11050;52.222;20.916;2023-06-14T06:17:48;16.00;99.90
21778;DHT22;11050;52.222;20.916;2023-06-14T06:20:13;16.20;99.90
21778;DHT22;11050;52.222;20.916;2023-06-14T06:22:39;16.30;99.90
21778;DHT22;11050;52.222;20.916;2023-06-14T06:25:05;16.40;99.90
21778;DHT22;11050;52.222;20.916;2023-06-14T06:27:32;16.60;99.90
21778;DHT22;11050;52.222;20.916;2023-06-14T06:29:58;16.70;99.90
21778;DHT22;11050;52.222;20.916;2023-06-14T06:32:23;16.80;99.90
21778;DHT22;11050;52.222;20.916;2023-06-14T06:34:50;16.90;99.90
21778;DHT22;11050;52.222;20.916;2023-06-14T06:37:15;16.90;99.90
21778;DHT22;11050;52.222;20.916;2023-06-14T06:39:41;17.00;99.90
21778;DHT22;11050;52.222;20.916;2023-06-14T06:42:07;17.00;99.90
21778;DHT22;11050;52.222;20.916;2023-06-14T06:44:33;17.10;99.90
21778;DHT22;11050;52.222;20.916;2023-06-14T06:46:58;17.10;99.90
21778;DHT22;11050;52.222;20.916;2023-06-14T06:49:24;17.20;99.90
21778;DHT22;11050;52.222;20.916;2023-06-14T06:52:01;17.20;99.90
21778;DHT22;11050;52.222;20.916;2023-06-14T06:54:28;17.30;99.90
21778;DHT22;11050;52.222;20.916;2023-06-14T06:56:54;17.40;99.90
21778;DHT22;11050;52.222;20.916;2023-06-14T06:59:19;17.50;99.90
21778;DHT22;11050;52.222;20.916;2023-06-14T07:01:46;17.60;99.90
21778;DHT22;11050;52.222;20.916;2023-06-14T07:04:12;17.70;99.90
21778;DHT22;11050;52.222;20.916;2023-06-14T07:06:38;17.70;99.90
21778;DHT22;11050;52.222;20.916;2023-06-14T07:09:04;17.80;99.90
21778;DHT22;11050;52.222;20.916;2023-06-14T07:11:33;17.80;99.90
21778;DHT22;11050;52.222;20.916;2023-06-14T07:13:59;17.80;99.90
21778;DHT22;11050;52.222;20.916;2023-06-14T07:16:25;17.80;99.90
21778;DHT22;11050;52.222;20.916;2023-06-14T07:18:51;17.80;99.90
21778;DHT22;11050;52.222;20.916;2023-06-14T07:21:17;17.70;99.90
21778;DHT22;11050;52.222;20.916;2023-06-14T07:23:43;17.70;99.90
21778;DHT22;11050;52.222;20.916;2023-06-14T07:26:09;17.70;99.90
21778;DHT22;11050;52.222;20.916;2023-06-14T07:28:35;17.70;99.90
21778;DHT22;11050;52.222;20.916;2023-06-14T07:31:01;17.80;99.90
21778;DHT22;11050;52.222;20.916;2023-06-14T07:33:27;17.90;99.90
21778;DHT22;11050;52.222;20.916;2023-06-14T07:35:53;17.90;99.90
21778;DHT22;11050;52.222;20.916;2023-06-14T07:38:19;18.00;99.90
21778;DHT22;11050;52.222;20.916;2023-06-14T07:40:45;18.10;99.90
21778;DHT22;11050;52.222;20.916;2023-06-14T07:43:10;18.20;99.90
21778;DHT22;11050;52.222;20.916;2023-06-14T07:45:37;18.30;99.90
21778;DHT22;11050;52.222;20.916;2023-06-14T07:48:03;18.40;99.90
21778;DHT22;11050;52.222;20.916;2023-06-14T07:50:29;18.50;99.90
21778;DHT22;11050;52.222;20.916;2023-06-14T07:52:55;18.60;99.90
21778;DHT22;11050;52.222;20.916;2023-06-14T07:55:21;18.80;99.90
21778;DHT22;11050;52.222;20.916;2023-06-14T07:57:47;18.80;99.90
21778;DHT22;11050;52.222;20.916;2023-06-14T08:00:13;18.90;99.90
21778;DHT22;11050;52.222;20.916;2023-06-14T08:02:44;19.00;99.90
21778;DHT22;11050;52.222;20.916;2023-06-14T08:05:13;19.10;99.90
21778;DHT22;11050;52.222;20.916;2023-06-14T08:07:39;19.20;99.90
21778;DHT22;11050;52.222;20.916;2023-06-14T08:10:06;19.20;99.90
21778;DHT22;11050;52.222;20.916;2023-06-14T08:12:33;19.30;99.90
21778;DHT22;11050;52.222;20.916;2023-06-14T08:15:00;19.40;99.90
21778;DHT22;11050;52.222;20.916;2023-06-14T08:17:26;19.50;99.90
21778;DHT22;11050;52.222;20.916;2023-06-14T08:19:52;19.50;99.90
21778;DHT22;11050;52.222;20.916;2023-06-14T08:22:20;19.60;99.90
21778;DHT22;11050;52.222;20.916;2023-06-14T08:24:47;19.60;99.90
21778;DHT22;11050;52.222;20.916;2023-06-14T08:27:13;19.70;99.90
21778;DHT22;11050;52.222;20.916;2023-06-14T08:29:39;19.60;99.90
21778;DHT22;11050;52.222;20.916;2023-06-14T08:32:06;19.70;99.90
21778;DHT22;11050;52.222;20.916;2023-06-14T08:34:32;19.70;99.90
21778;DHT22;11050;52.222;20.916;2023-06-14T08:36:57;19.80;99.90
21778;DHT22;11050;52.222;20.916;2023-06-14T08:39:23;19.80;99.90
21778;DHT22;11050;52.222;20.916;2023-06-14T08:41:50;19.80;99.90
21778;DHT22;11050;52.222;20.916;2023-06-14T08:44:18;19.90;99.90
21778;DHT22;11050;52.222;20.916;2023-06-14T08:46:43;20.00;99.90
21778;DHT22;11050;52.222;20.916;2023-06-14T08:49:12;20.00;99.90
21778;DHT22;11050;52.222;20.916;2023-06-14T08:51:39;20.10;99.90
21778;DHT22;11050;52.222;20.916;2023-06-14T08:54:06;20.10;99.90
21778;DHT22;11050;52.222;20.916;2023-06-14T08:56:32;20.20;99.90
21778;DHT22;11050;52.222;20.916;2023-06-14T08:59:00;20.30;99.90
21778;DHT22;11050;52.222;20.916;2023-06-14T09:01:32;20.30;99.90
21778;DHT22;11050;52.222;20.916;2023-06-14T09:04:00;20.40;99.90
21778;DHT22;11050;52.222;20.916;2023-06-14T09:06:27;20.50;99.90
21778;DHT22;11050;52.222;20.916;2023-06-14T09:08:55;20.60;99.90
21778;DHT22;11050;52.222;20.916;2023-06-14T09:11:24;20.70;99.90
21778;DHT22;11050;52.222;20.916;2023-06-14T09:13:51;20.80;99.90
21778;DHT22;11050;52.222;20.916;2023-06-14T09:16:17;20.90;99.90
21778;DHT22;11050;52.222;20.916;2023-06-14T09:18:45;21.10;99.90
21778;DHT22;11050;52.222;20.916;2023-06-14T09:21:15;21.20;99.90
21778;DHT22;11050;52.222;20.916;2023-06-14T09:23:47;21.30;99.90
21778;DHT22;11050;52.222;20.916;2023-06-14T09:26:22;21.50;99.90
21778;DHT22;11050;52.222;20.916;2023-06-14T09:28:49;21.60;99.70
21778;DHT22;11050;52.222;20.916;2023-06-14T09:31:20;21.70;99.00
21778;DHT22;11050;52.222;20.916;2023-06-14T09:33:48;21.80;98.50
21778;DHT22;11050;52.222;20.916;2023-06-14T09:36:22;21.90;98.50
21778;DHT22;11050;52.222;20.916;2023-06-14T09:39:16;21.90;98.20
21778;DHT22;11050;52.222;20.916;2023-06-14T09:41:43;21.90;96.90
21778;DHT22;11050;52.222;20.916;2023-06-14T09:44:10;21.80;96.70
21778;DHT22;11050;52.222;20.916;2023-06-14T09:46:37;21.70;96.80
21778;DHT22;11050;52.222;20.916;2023-06-14T09:49:04;21.60;96.10
21778;DHT22;11050;52.222;20.916;2023-06-14T09:51:31;21.40;96.50
21778;DHT22;11050;52.222;20.916;2023-06-14T09:54:01;21.30;97.00
21778;DHT22;11050;52.222;20.916;2023-06-14T09:56:36;21.20;97.30
21778;DHT22;11050;52.222;20.916;2023-06-14T09:59:05;21.10;96.90
21778;DHT22;11050;52.222;20.916;2023-06-14T10:01:33;21.00;97.90
21778;DHT22;11050;52.222;20.916;2023-06-14T10:04:04;21.00;98.00
21778;DHT22;11050;52.222;20.916;2023-06-14T10:06:34;20.90;98.30
21778;DHT22;11050;52.222;20.916;2023-06-14T10:09:04;20.90;99.50
21778;DHT22;11050;52.222;20.916;2023-06-14T10:11:31;20.90;98.40
21778;DHT22;11050;52.222;20.916;2023-06-14T10:13:57;21.00;97.00
21778;DHT22;11050;52.222;20.916;2023-06-14T10:19:48;21.20;95.80
21778;DHT22;11050;52.222;20.916;2023-06-14T10:22:40;21.50;94.20
21778;DHT22;11050;52.222;20.916;2023-06-14T10:25:25;21.70;93.60
21778;DHT22;11050;52.222;20.916;2023-06-14T10:27:52;21.90;92.40
21778;DHT22;11050;52.222;20.916;2023-06-14T10:30:25;22.00;91.70
21778;DHT22;11050;52.222;20.916;2023-06-14T10:33:07;22.00;90.70
21778;DHT22;11050;52.222;20.916;2023-06-14T10:35:33;22.20;91.40
21778;DHT22;11050;52.222;20.916;2023-06-14T10:38:10;22.40;90.60
21778;DHT22;11050;52.222;20.916;2023-06-14T10:40:38;22.60;89.90
21778;DHT22;11050;52.222;20.916;2023-06-14T10:43:23;22.80;88.50
21778;DHT22;11050;52.222;20.916;2023-06-14T10:46:12;23.00;85.60
21778;DHT22;11050;52.222;20.916;2023-06-14T10:48:43;23.00;83.40
21778;DHT22;11050;52.222;20.916;2023-06-14T10:51:20;23.00;84.70
21778;DHT22;11050;52.222;20.916;2023-06-14T10:53:47;23.00;84.90
21778;DHT22;11050;52.222;20.916;2023-06-14T10:56:28;23.10;83.50
21778;DHT22;11050;52.222;20.916;2023-06-14T10:58:57;23.10;80.00
21778;DHT22;11050;52.222;20.916;2023-06-14T11:10:40;23.50;77.30
21778;DHT22;11050;52.222;20.916;2023-06-14T11:13:08;23.60;77.20
21778;DHT22;11050;52.222;20.916;2023-06-14T11:15:36;23.80;75.30
21778;DHT22;11050;52.222;20.916;2023-06-14T11:18:07;24.00;73.80
21778;DHT22;11050;52.222;20.916;2023-06-14T11:20:37;24.30;72.80
21778;DHT22;11050;52.222;20.916;2023-06-14T11:23:03;24.90;72.20
21778;DHT22;11050;52.222;20.916;2023-06-14T11:25:30;25.30;70.70
21778;DHT22;11050;52.222;20.916;2023-06-14T11:27:56;25.70;67.20
21778;DHT22;11050;52.222;20.916;2023-06-14T11:30:23;25.90;63.70
21778;DHT22;11050;52.222;20.916;2023-06-14T11:32:50;25.90;62.00
21778;DHT22;11050;52.222;20.916;2023-06-14T11:35:17;25.80;62.50
21778;DHT22;11050;52.222;20.916;2023-06-14T11:37:44;25.60;62.20
21778;DHT22;11050;52.222;20.916;2023-06-14T11:40:11;25.40;63.00
21778;DHT22;11050;52.222;20.916;2023-06-14T11:42:39;25.10;62.40
21778;DHT22;11050;52.222;20.916;2023-06-14T11:45:10;24.90;63.70
21778;DHT22;11050;52.222;20.916;2023-06-14T11:47:38;24.70;64.50
21778;DHT22;11050;52.222;20.916;2023-06-14T11:50:06;24.70;65.00
21778;DHT22;11050;52.222;20.916;2023-06-14T11:52:37;24.70;64.70
21778;DHT22;11050;52.222;20.916;2023-06-14T11:55:03;24.70;64.70
21778;DHT22;11050;52.222;20.916;2023-06-14T11:57:34;24.80;65.00
21778;DHT22;11050;52.222;20.916;2023-06-14T12:00:03;25.10;62.60
21778;DHT22;11050;52.222;20.916;2023-06-14T12:02:37;25.50;60.20
21778;DHT22;11050;52.222;20.916;2023-06-14T12:05:06;25.80;58.80
21778;DHT22;11050;52.222;20.916;2023-06-14T12:07:38;26.10;58.50
21778;DHT22;11050;52.222;20.916;2023-06-14T12:10:09;26.30;57.70
21778;DHT22;11050;52.222;20.916;2023-06-14T12:12:39;26.50;58.20
21778;DHT22;11050;52.222;20.916;2023-06-14T12:15:09;26.70;56.60
21778;DHT22;11050;52.222;20.916;2023-06-14T12:17:39;26.80;56.30
21778;DHT22;11050;52.222;20.916;2023-06-14T12:20:09;27.00;54.70
21778;DHT22;11050;52.222;20.916;2023-06-14T12:22:58;27.10;54.90
21778;DHT22;11050;52.222;20.916;2023-06-14T12:25:34;27.20;54.00
21778;DHT22;11050;52.222;20.916;2023-06-14T12:28:06;27.10;52.80
21778;DHT22;11050;52.222;20.916;2023-06-14T12:30:34;26.90;52.60
21778;DHT22;11050;52.222;20.916;2023-06-14T12:33:04;26.80;52.10
21778;DHT22;11050;52.222;20.916;2023-06-14T12:35:31;26.70;52.20
21778;DHT22;11050;52.222;20.916;2023-06-14T12:37:57;26.60;52.90
21778;DHT22;11050;52.222;20.916;2023-06-14T12:40:22;26.60;53.60
21778;DHT22;11050;52.222;20.916;2023-06-14T12:42:49;26.80;52.40
21778;DHT22;11050;52.222;20.916;2023-06-14T12:45:14;27.10;51.90
21778;DHT22;11050;52.222;20.916;2023-06-14T12:47:41;27.20;51.40
21778;DHT22;11050;52.222;20.916;2023-06-14T12:50:07;27.40;50.90
21778;DHT22;11050;52.222;20.916;2023-06-14T12:52:33;27.70;50.80
21778;DHT22;11050;52.222;20.916;2023-06-14T12:55:05;28.00;49.70
21778;DHT22;11050;52.222;20.916;2023-06-14T12:57:32;28.30;49.50
21778;DHT22;11050;52.222;20.916;2023-06-14T12:59:59;28.80;49.90
21778;DHT22;11050;52.222;20.916;2023-06-14T13:02:25;29.30;48.80
21778;DHT22;11050;52.222;20.916;2023-06-14T13:04:51;29.50;48.10
21778;DHT22;11050;52.222;20.916;2023-06-14T13:07:17;29.70;47.90
21778;DHT22;11050;52.222;20.916;2023-06-14T13:09:43;29.80;46.80
21778;DHT22;11050;52.222;20.916;2023-06-14T13:12:12;29.70;45.90
21778;DHT22;11050;52.222;20.916;2023-06-14T13:14:39;29.40;46.30
21778;DHT22;11050;52.222;20.916;2023-06-14T13:17:08;29.00;44.90
21778;DHT22;11050;52.222;20.916;2023-06-14T13:19:35;28.40;45.20
21778;DHT22;11050;52.222;20.916;2023-06-14T13:22:01;28.20;45.90
21778;DHT22;11050;52.222;20.916;2023-06-14T13:24:27;28.00;45.40
21778;DHT22;11050;52.222;20.916;2023-06-14T13:26:55;28.00;47.10
21778;DHT22;11050;52.222;20.916;2023-06-14T13:29:21;28.30;45.90
21778;DHT22;11050;52.222;20.916;2023-06-14T13:31:46;28.50;45.50
21778;DHT22;11050;52.222;20.916;2023-06-14T13:34:12;28.70;45.50
21778;DHT22;11050;52.222;20.916;2023-06-14T13:36:38;29.10;44.10
21778;DHT22;11050;52.222;20.916;2023-06-14T13:39:04;29.50;43.70
21778;DHT22;11050;52.222;20.916;2023-06-14T13:41:31;29.90;43.70
21778;DHT22;11050;52.222;20.916;2023-06-14T13:43:59;30.10;43.60
21778;DHT22;11050;52.222;20.916;2023-06-14T13:46:25;30.40;43.80
21778;DHT22;11050;52.222;20.916;2023-06-14T13:48:51;30.70;42.30
21778;DHT22;11050;52.222;20.916;2023-06-14T13:51:17;31.00;42.40
21778;DHT22;11050;52.222;20.916;2023-06-14T13:53:48;31.20;42.10
21778;DHT22;11050;52.222;20.916;2023-06-14T13:56:14;31.20;41.20
21778;DHT22;11050;52.222;20.916;2023-06-14T13:58:40;31.00;41.50
21778;DHT22;11050;52.222;20.916;2023-06-14T14:01:08;30.60;41.30
21778;DHT22;11050;52.222;20.916;2023-06-14T14:03:35;30.10;42.60
21778;DHT22;11050;52.222;20.916;2023-06-14T14:06:02;29.70;44.10
21778;DHT22;11050;52.222;20.916;2023-06-14T14:08:29;29.10;44.30
21778;DHT22;11050;52.222;20.916;2023-06-14T14:10:54;28.50;45.80
21778;DHT22;11050;52.222;20.916;2023-06-14T14:13:21;27.90;46.40
21778;DHT22;11050;52.222;20.916;2023-06-14T14:15:47;27.30;47.80
21778;DHT22;11050;52.222;20.916;2023-06-14T14:18:14;26.80;48.50
21778;DHT22;11050;52.222;20.916;2023-06-14T14:20:40;26.40;49.40
21778;DHT22;11050;52.222;20.916;2023-06-14T14:23:06;26.30;51.20
21778;DHT22;11050;52.222;20.916;2023-06-14T14:25:32;26.40;50.50
21778;DHT22;11050;52.222;20.916;2023-06-14T14:27:57;26.50;50.40
21778;DHT22;11050;52.222;20.916;2023-06-14T14:30:23;26.50;49.40
21778;DHT22;11050;52.222;20.916;2023-06-14T14:32:52;26.70;50.00
21778;DHT22;11050;52.222;20.916;2023-06-14T14:35:18;26.70;50.00
21778;DHT22;11050;52.222;20.916;2023-06-14T14:37:44;26.60;50.00
21778;DHT22;11050;52.222;20.916;2023-06-14T14:40:11;26.60;49.90
21778;DHT22;11050;52.222;20.916;2023-06-14T14:42:37;26.40;50.70
21778;DHT22;11050;52.222;20.916;2023-06-14T14:45:03;26.20;50.70
21778;DHT22;11050;52.222;20.916;2023-06-14T14:47:29;25.90;51.00
21778;DHT22;11050;52.222;20.916;2023-06-14T14:49:55;25.70;51.60
21778;DHT22;11050;52.222;20.916;2023-06-14T14:52:20;25.60;52.50
21778;DHT22;11050;52.222;20.916;2023-06-14T14:54:47;25.40;53.30
21778;DHT22;11050;52.222;20.916;2023-06-14T14:57:13;25.30;52.20
21778;DHT22;11050;52.222;20.916;2023-06-14T14:59:38;25.00;52.60
21778;DHT22;11050;52.222;20.916;2023-06-14T15:02:05;24.90;53.70
21778;DHT22;11050;52.222;20.916;2023-06-14T15:04:30;24.70;54.80
21778;DHT22;11050;52.222;20.916;2023-06-14T15:06:57;24.50;55.50
21778;DHT22;11050;52.222;20.916;2023-06-14T15:09:22;24.30;56.10
21778;DHT22;11050;52.222;20.916;2023-06-14T15:11:48;24.30;55.60
21778;DHT22;11050;52.222;20.916;2023-06-14T15:14:14;24.10;56.50
21778;DHT22;11050;52.222;20.916;2023-06-14T15:16:41;24.00;56.30
21778;DHT22;11050;52.222;20.916;2023-06-14T15:19:06;23.90;57.50
21778;DHT22;11050;52.222;20.916;2023-06-14T15:21:32;24.00;57.80
21778;DHT22;11050;52.222;20.916;2023-06-14T15:23:58;24.10;58.10
21778;DHT22;11050;52.222;20.916;2023-06-14T15:26:23;24.10;57.80
21778;DHT22;11050;52.222;20.916;2023-06-14T15:28:50;24.10;58.50
21778;DHT22;11050;52.222;20.916;2023-06-14T15:31:16;24.00;58.80
21778;DHT22;11050;52.222;20.916;2023-06-14T15:33:41;23.90;57.80